createdAt,value
2023-02-14T00:00:21.538Z,0.09
2023-02-14T00:02:49.396Z,0.25
2023-02-14T00:05:16.080Z,0.23
2023-02-14T00:07:42.655Z,0.08
2023-02-14T00:10:10.199Z,0.06
2023-02-14T00:12:36.730Z,0.03
2023-02-14T00:15:03.582Z,0.07
2023-02-14T00:17:30.168Z,-0.03
2023-02-14T00:19:56.680Z,-0.02
2023-02-14T00:22:23.213Z,0.03
2023-02-14T00:24:49.830Z,0.00
2023-02-14T00:27:16.511Z,-0.04
2023-02-14T00:29:43.179Z,-0.05
2023-02-14T00:32:10.139Z,-0.08
2023-02-14T00:34:36.823Z,-0.07
2023-02-14T00:37:06.423Z,-0.18
2023-02-14T00:39:33.017Z,-0.02
2023-02-14T00:41:59.526Z,0.00
2023-02-14T00:44:26.144Z,-0.03
2023-02-14T00:46:52.686Z,-0.09
2023-02-14T00:49:19.264Z,-0.23
2023-02-14T00:51:45.934Z,-0.17
2023-02-14T00:54:12.555Z,-0.12
2023-02-14T00:56:39.211Z,-0.05
2023-02-14T00:59:05.786Z,0.04
2023-02-14T01:01:32.378Z,-0.09
2023-02-14T01:03:58.987Z,-0.05
2023-02-14T01:06:25.703Z,-0.01
2023-02-14T01:08:52.284Z,-0.17
2023-02-14T01:11:21.427Z,-0.19
2023-02-14T01:13:49.605Z,-0.10
2023-02-14T01:16:20.035Z,-0.05
2023-02-14T01:18:48.836Z,-0.01
2023-02-14T01:21:21.386Z,-0.07
2023-02-14T01:23:50.188Z,-0.15
2023-02-14T01:26:17.606Z,-0.07
2023-02-14T01:28:44.671Z,-0.05
2023-02-14T01:31:15.074Z,-0.04
2023-02-14T01:33:43.726Z,-0.29
2023-02-14T01:36:19.296Z,-0.28
2023-02-14T01:38:46.456Z,-0.06
2023-02-14T01:41:13.313Z,-0.19
2023-02-14T01:43:51.779Z,-0.14
2023-02-14T01:46:18.552Z,0.06
2023-02-14T01:48:45.897Z,-0.04
2023-02-14T01:51:14.293Z,-0.07
2023-02-14T01:53:40.996Z,0.00
2023-02-14T01:56:13.313Z,0.08
2023-02-14T01:58:44.193Z,0.05
2023-02-14T02:01:14.735Z,0.16
2023-02-14T02:03:49.335Z,0.32
2023-02-14T02:06:21.977Z,0.33
2023-02-14T02:09:26.257Z,0.49
2023-02-14T02:11:52.928Z,0.60
2023-02-14T02:14:21.839Z,0.62
2023-02-14T02:17:23.679Z,0.73
2023-02-14T02:20:02.144Z,0.85
2023-02-14T02:22:42.310Z,0.86
2023-02-14T02:25:52.561Z,0.87
2023-02-14T02:28:24.981Z,0.92
2023-02-14T02:31:13.277Z,0.88
2023-02-14T02:34:03.850Z,0.86
2023-02-14T02:36:50.450Z,0.83
2023-02-14T02:39:49.176Z,0.89
2023-02-14T02:42:31.375Z,0.86
2023-02-14T02:45:12.248Z,0.78
2023-02-14T02:48:06.576Z,0.79
2023-02-14T02:50:41.503Z,0.75
2023-02-14T02:53:14.932Z,0.80
2023-02-14T02:55:44.552Z,0.74
2023-02-14T02:58:11.298Z,0.76
2023-02-14T03:00:37.950Z,0.68
2023-02-14T03:03:05.124Z,0.71
2023-02-14T03:05:34.225Z,0.78
2023-02-14T03:08:00.846Z,0.65
2023-02-14T03:10:32.104Z,0.49
2023-02-14T03:13:10.465Z,0.48
2023-02-14T03:15:49.276Z,0.67
2023-02-14T03:18:44.566Z,0.60
2023-02-14T03:21:14.070Z,0.63
2023-02-14T03:23:50.411Z,0.61
2023-02-14T03:26:20.494Z,0.67
2023-02-14T03:29:12.743Z,0.65
2023-02-14T03:32:03.878Z,0.60
2023-02-14T03:34:38.595Z,0.67
2023-02-14T03:37:17.125Z,0.77
2023-02-14T03:40:22.683Z,0.83
2023-02-14T03:42:54.509Z,0.66
2023-02-14T03:45:27.660Z,0.75
2023-02-14T03:47:58.612Z,0.70
2023-02-14T03:50:28.014Z,0.71
2023-02-14T03:52:58.104Z,0.71
2023-02-14T03:55:36.077Z,0.72
2023-02-14T03:58:20.241Z,0.80
2023-02-14T04:00:50.390Z,0.76
2023-02-14T04:03:19.472Z,0.68
2023-02-14T04:05:47.175Z,0.66
2023-02-14T04:08:26.396Z,0.76
2023-02-14T04:10:54.300Z,0.77
2023-02-14T04:13:21.356Z,0.73
2023-02-14T04:15:48.219Z,0.74
2023-02-14T04:18:15.032Z,0.74
2023-02-14T04:20:41.725Z,0.79
2023-02-14T04:23:08.262Z,0.69
2023-02-14T04:25:34.827Z,0.49
2023-02-14T04:28:01.439Z,0.57
2023-02-14T04:30:28.143Z,0.42
2023-02-14T04:32:54.728Z,0.38
2023-02-14T04:35:21.408Z,0.37
2023-02-14T04:37:47.958Z,0.38
2023-02-14T04:40:14.934Z,0.52
2023-02-14T04:42:41.484Z,0.45
2023-02-14T04:45:08.500Z,0.48
2023-02-14T04:47:35.036Z,0.47
2023-02-14T04:50:01.702Z,0.43
2023-02-14T04:52:28.328Z,0.44
2023-02-14T04:54:55.042Z,0.51
2023-02-14T04:57:21.805Z,0.37
2023-02-14T04:59:48.531Z,0.32
2023-02-14T05:02:15.447Z,0.41
2023-02-14T05:04:42.218Z,0.41
2023-02-14T05:07:08.891Z,0.45
2023-02-14T05:09:35.588Z,0.65
2023-02-14T05:12:02.178Z,0.65
2023-02-14T05:14:28.700Z,0.59
2023-02-14T05:16:55.338Z,0.70
2023-02-14T05:19:21.958Z,0.75
2023-02-14T05:21:48.637Z,0.72
2023-02-14T05:24:16.292Z,0.69
2023-02-14T05:26:43.048Z,0.75
2023-02-14T05:29:09.683Z,0.77
2023-02-14T05:31:36.471Z,0.81
2023-02-14T05:34:05.388Z,0.75
2023-02-14T05:36:31.931Z,0.80
2023-02-14T05:38:58.536Z,0.81
2023-02-14T05:41:25.237Z,0.82
2023-02-14T05:43:51.820Z,0.89
2023-02-14T05:46:18.475Z,0.84
2023-02-14T05:48:45.076Z,0.87
2023-02-14T05:51:11.705Z,0.96
2023-02-14T05:53:38.742Z,1.10
2023-02-14T05:56:05.917Z,1.12
2023-02-14T05:58:32.834Z,1.13
2023-02-14T06:01:00.014Z,1.21
2023-02-14T06:03:27.185Z,1.24
2023-02-14T06:05:53.777Z,1.24
2023-02-14T06:08:20.393Z,1.32
2023-02-14T06:10:46.952Z,1.38
2023-02-14T06:13:13.631Z,1.38
2023-02-14T06:15:40.219Z,1.34
2023-02-14T06:18:07.107Z,1.42
2023-02-14T06:20:34.013Z,1.35
2023-02-14T06:23:01.475Z,1.40
2023-02-14T06:25:28.196Z,1.42
2023-02-14T06:27:58.861Z,1.47
2023-02-14T06:30:26.710Z,1.52
2023-02-14T06:32:53.512Z,1.55
2023-02-14T06:35:23.137Z,1.61
2023-02-14T06:37:49.876Z,1.69
2023-02-14T06:40:26.800Z,1.71
2023-02-14T06:42:53.479Z,1.73
2023-02-14T06:45:24.755Z,1.74
2023-02-14T06:47:51.586Z,1.78
2023-02-14T06:50:18.540Z,1.90
2023-02-14T06:52:47.035Z,2.04
2023-02-14T06:55:13.773Z,2.16
2023-02-14T06:57:40.663Z,2.13
2023-02-14T07:00:08.516Z,2.16
2023-02-14T07:02:35.385Z,2.22
2023-02-14T07:05:02.028Z,2.23
2023-02-14T07:07:28.845Z,2.25
2023-02-14T07:09:55.866Z,2.25
2023-02-14T07:12:22.448Z,2.31
2023-02-14T07:14:49.045Z,2.28
2023-02-14T07:17:19.275Z,2.40
2023-02-14T07:19:45.871Z,2.40
2023-02-14T07:22:12.490Z,2.46
2023-02-14T07:24:39.144Z,2.55
2023-02-14T07:27:05.879Z,2.55
2023-02-14T07:32:13.951Z,2.46
2023-02-14T07:34:40.716Z,2.46
2023-02-14T07:37:07.487Z,2.56
2023-02-14T07:39:34.268Z,2.63
2023-02-14T07:42:00.941Z,2.64
2023-02-14T07:44:27.658Z,2.65
2023-02-14T07:46:56.351Z,2.80
2023-02-14T07:49:24.133Z,3.06
2023-02-14T07:51:50.741Z,2.94
2023-02-14T07:54:18.383Z,3.13
2023-02-14T07:56:46.160Z,3.14
2023-02-14T07:59:14.826Z,3.37
2023-02-14T08:01:44.416Z,3.53
2023-02-14T08:04:11.493Z,3.48
2023-02-14T08:06:39.205Z,3.66
2023-02-14T08:09:05.960Z,3.83
2023-02-14T08:11:33.638Z,3.88
2023-02-14T08:14:02.779Z,3.91
2023-02-14T08:16:33.303Z,3.99
2023-02-14T08:19:00.636Z,4.04
2023-02-14T08:21:27.856Z,4.09
2023-02-14T08:23:54.533Z,3.98
2023-02-14T08:26:21.426Z,3.89
2023-02-14T08:28:48.324Z,4.11
2023-02-14T08:31:34.695Z,4.10
2023-02-14T08:34:02.082Z,4.10
2023-02-14T08:36:28.724Z,4.29
2023-02-14T08:38:55.443Z,4.35
2023-02-14T08:41:22.087Z,4.46
2023-02-14T08:43:50.691Z,4.43
2023-02-14T08:46:17.468Z,4.56
2023-02-14T08:48:47.228Z,4.56
2023-02-14T08:51:14.976Z,4.45
2023-02-14T08:53:42.911Z,4.64
2023-02-14T08:56:12.033Z,4.70
2023-02-14T08:58:39.220Z,4.67
2023-02-14T09:01:15.355Z,4.73
2023-02-14T09:03:43.031Z,4.73
2023-02-14T09:06:19.176Z,4.81
2023-02-14T09:08:46.604Z,4.91
2023-02-14T09:11:22.393Z,4.95
2023-02-14T09:13:50.826Z,4.99
2023-02-14T09:16:18.627Z,5.15
2023-02-14T09:18:46.937Z,5.20
2023-02-14T09:21:19.060Z,5.30
2023-02-14T09:23:45.952Z,5.42
2023-02-14T09:26:14.330Z,5.51
2023-02-14T09:28:41.289Z,5.51
2023-02-14T09:31:10.260Z,5.52
2023-02-14T09:33:37.265Z,5.55
2023-02-14T09:36:06.631Z,5.65
2023-02-14T09:38:33.148Z,5.81
2023-02-14T09:41:00.107Z,5.84
2023-02-14T09:43:38.231Z,5.90
2023-02-14T09:46:11.534Z,6.26
2023-02-14T09:48:45.390Z,7.06
2023-02-14T09:51:16.277Z,7.12
2023-02-14T09:53:51.560Z,7.27
2023-02-14T09:56:51.888Z,7.80
2023-02-14T09:59:28.994Z,9.63
2023-02-14T10:02:07.956Z,11.35
2023-02-14T10:04:42.767Z,11.19
2023-02-14T10:07:27.342Z,11.14
2023-02-14T10:10:14.090Z,13.82
2023-02-14T10:12:50.554Z,14.10
2023-02-14T10:15:25.661Z,13.55
2023-02-14T10:18:01.028Z,12.44
2023-02-14T10:20:35.222Z,12.14
2023-02-14T10:23:06.820Z,12.88
2023-02-14T10:25:46.312Z,13.72
2023-02-14T10:28:16.833Z,14.99
2023-02-14T10:30:55.243Z,15.55
2023-02-14T10:33:27.956Z,15.59
2023-02-14T10:36:10.456Z,15.94
2023-02-14T10:39:00.889Z,16.05
2023-02-14T10:41:40.953Z,15.18
2023-02-14T10:44:26.434Z,16.39
2023-02-14T10:47:13.147Z,15.93
2023-02-14T10:49:54.855Z,18.05
2023-02-14T10:52:28.602Z,17.17
2023-02-14T10:55:12.421Z,18.69
2023-02-14T10:57:50.844Z,20.57
2023-02-14T11:00:24.209Z,20.02
2023-02-14T11:02:58.296Z,21.03
2023-02-14T11:05:49.056Z,19.66
2023-02-14T11:08:18.825Z,21.96
2023-02-14T11:10:48.573Z,22.04
2023-02-14T11:13:34.364Z,21.02
2023-02-14T11:16:20.489Z,20.52
2023-02-14T11:19:20.028Z,21.16
2023-02-14T11:21:49.679Z,22.12
2023-02-14T11:24:30.047Z,20.40
2023-02-14T11:27:00.826Z,19.20
2023-02-14T11:29:47.755Z,21.98
2023-02-14T11:32:27.156Z,23.74
2023-02-14T11:35:08.934Z,23.37
2023-02-14T11:37:44.506Z,22.38
2023-02-14T11:40:42.456Z,20.92
2023-02-14T11:43:15.099Z,23.07
2023-02-14T11:45:43.967Z,24.58
2023-02-14T11:48:37.691Z,23.44
2023-02-14T11:51:11.864Z,22.94
2023-02-14T11:53:56.346Z,19.12
2023-02-14T11:56:25.377Z,16.41
2023-02-14T13:38:06.975Z,10.46
2023-02-14T13:40:35.764Z,10.48
2023-02-14T13:43:03.012Z,10.47
2023-02-14T13:45:29.630Z,10.32
2023-02-14T13:48:09.235Z,10.12
2023-02-14T13:51:07.766Z,10.06
2023-02-14T13:53:43.292Z,10.02
2023-02-14T13:56:12.585Z,9.94
2023-02-14T13:58:55.970Z,9.85
2023-02-14T14:01:43.340Z,9.82
2023-02-14T14:04:34.291Z,9.63
2023-02-14T14:07:03.718Z,9.67
2023-02-14T14:09:42.252Z,9.61
2023-02-14T14:12:27.033Z,9.61
2023-02-14T14:15:05.782Z,9.54
2023-02-14T14:18:06.658Z,9.50
2023-02-14T14:27:46.071Z,9.09
2023-02-14T14:30:36.409Z,9.12
2023-02-14T14:33:26.088Z,9.01
2023-02-14T14:36:21.330Z,8.90
2023-02-14T14:38:50.527Z,8.82
2023-02-14T14:41:17.868Z,8.74
2023-02-14T14:44:05.698Z,8.67
2023-02-14T14:46:35.837Z,8.60
2023-02-14T14:49:02.949Z,8.52
2023-02-14T14:51:36.152Z,8.48
2023-02-14T14:54:22.127Z,8.38
2023-02-14T14:56:59.200Z,8.24
2023-02-14T14:59:30.325Z,8.16
2023-02-14T15:01:57.330Z,8.18
2023-02-14T15:04:28.789Z,8.09
2023-02-14T15:06:57.284Z,7.94
2023-02-14T15:09:39.302Z,7.91
2023-02-14T15:12:06.855Z,7.94
2023-02-14T15:14:43.820Z,7.87
2023-02-14T15:17:23.558Z,7.76
2023-02-14T15:19:56.888Z,7.69
2023-02-14T15:22:28.020Z,7.64
2023-02-14T15:24:54.866Z,7.54
2023-02-14T15:27:24.879Z,7.48
2023-02-14T15:30:06.183Z,7.45
2023-02-14T15:32:35.336Z,7.36
2023-02-14T15:35:04.501Z,7.26
2023-02-14T15:37:32.169Z,7.21
2023-02-14T15:39:59.582Z,7.17
2023-02-14T15:42:31.188Z,7.11
2023-02-14T15:45:36.711Z,7.01
2023-02-14T15:48:11.658Z,6.95
2023-02-14T15:50:46.828Z,6.84
2023-02-14T15:53:19.275Z,6.76
2023-02-14T15:55:50.354Z,6.71
2023-02-14T15:58:25.451Z,6.63
2023-02-14T16:00:53.500Z,6.45
2023-02-14T16:03:24.290Z,6.41
2023-02-14T16:05:51.747Z,6.30
2023-02-14T16:08:42.347Z,6.20
2023-02-14T16:11:26.794Z,6.05
2023-02-14T16:13:53.822Z,6.08
2023-02-14T16:16:20.443Z,6.00
2023-02-14T16:18:53.329Z,5.91
2023-02-14T16:21:25.982Z,5.76
2023-02-14T16:24:07.876Z,5.74
2023-02-14T16:26:35.940Z,5.70
2023-02-14T16:29:03.542Z,5.65
2023-02-14T16:31:30.829Z,5.65
2023-02-14T16:33:57.458Z,5.64
2023-02-14T16:36:32.960Z,5.61
2023-02-14T16:39:03.464Z,5.59
2023-02-14T16:41:31.439Z,5.58
2023-02-14T16:43:58.440Z,5.56
2023-02-14T16:46:32.995Z,5.53
2023-02-14T16:48:59.708Z,5.51
2023-02-14T16:51:29.538Z,5.51
2023-02-14T16:53:59.334Z,5.51
2023-02-14T16:56:44.746Z,5.54
2023-02-14T16:59:11.425Z,5.59
2023-02-14T17:01:38.326Z,5.53
2023-02-14T17:04:05.242Z,5.52
2023-02-14T17:06:33.861Z,5.51
2023-02-14T17:09:04.457Z,5.47
2023-02-14T17:11:32.508Z,5.45
2023-02-14T17:13:59.422Z,5.38
2023-02-14T17:16:26.064Z,5.29
2023-02-14T17:18:53.013Z,5.26
2023-02-14T17:21:23.909Z,5.15
2023-02-14T17:23:50.994Z,5.05
2023-02-14T17:26:17.542Z,5.00
2023-02-14T17:28:44.614Z,5.02
2023-02-14T17:31:11.283Z,4.94
2023-02-14T17:33:37.904Z,4.91
2023-02-14T17:36:06.462Z,5.00
2023-02-14T17:38:34.511Z,5.05
2023-02-14T17:41:11.053Z,5.01
2023-02-14T17:43:37.719Z,4.95
2023-02-14T17:46:05.202Z,4.86
2023-02-14T17:48:31.923Z,4.81
2023-02-14T17:51:04.270Z,4.67
2023-02-14T17:53:30.881Z,4.55
2023-02-14T17:55:57.553Z,4.44
2023-02-14T17:58:24.480Z,4.37
2023-02-14T18:00:51.170Z,4.20
2023-02-14T18:03:17.714Z,4.21
2023-02-14T18:05:44.328Z,4.23
2023-02-14T18:08:11.011Z,4.17
2023-02-14T18:10:37.844Z,3.97
2023-02-14T18:13:04.486Z,3.88
2023-02-14T18:15:31.051Z,3.82
2023-02-14T18:17:57.608Z,3.75
2023-02-14T18:20:24.220Z,3.74
2023-02-14T18:22:50.755Z,3.69
2023-02-14T18:25:17.484Z,3.69
2023-02-14T18:27:44.018Z,3.65
2023-02-14T18:30:11.005Z,3.63
2023-02-14T18:32:37.623Z,3.53
2023-02-14T18:35:04.396Z,3.49
2023-02-14T18:37:31.054Z,3.45
2023-02-14T18:39:57.688Z,3.47
2023-02-14T18:42:24.307Z,3.47
2023-02-14T18:44:51.058Z,3.28
2023-02-14T18:47:17.679Z,3.27
2023-02-14T18:49:44.268Z,3.26
2023-02-14T18:52:10.928Z,3.28
2023-02-14T18:54:37.488Z,3.23
2023-02-14T18:57:04.118Z,3.20
2023-02-14T18:59:30.687Z,3.08
2023-02-14T19:01:57.268Z,3.13
2023-02-14T19:04:23.898Z,3.03
2023-02-14T19:06:50.810Z,3.04
2023-02-14T19:09:17.458Z,2.92
2023-02-14T19:11:44.474Z,2.86
2023-02-14T19:14:11.303Z,2.90
2023-02-14T19:16:42.688Z,2.74
2023-02-14T19:19:10.318Z,2.61
2023-02-14T19:21:36.960Z,2.54
2023-02-14T19:24:05.743Z,2.43
2023-02-14T19:26:34.656Z,2.40
2023-02-14T19:29:04.816Z,2.51
2023-02-14T19:31:31.720Z,2.53
2023-02-14T19:33:58.544Z,2.38
2023-02-14T19:36:25.081Z,2.23
2023-02-14T19:38:52.873Z,2.19
2023-02-14T19:41:28.741Z,2.33
2023-02-14T19:43:57.149Z,2.37
2023-02-14T19:46:25.096Z,2.33
2023-02-14T19:48:52.299Z,2.21
2023-02-14T19:51:27.010Z,2.04
2023-02-14T19:53:55.162Z,2.00
2023-02-14T19:56:27.283Z,2.09
2023-02-14T19:58:54.621Z,2.02
2023-02-14T20:01:30.549Z,2.13
2023-02-14T20:03:57.906Z,2.16
2023-02-14T20:06:26.855Z,2.08
2023-02-14T20:08:53.599Z,2.16
2023-02-14T20:11:29.043Z,2.11
2023-02-14T20:13:55.739Z,2.09
2023-02-14T20:16:27.095Z,2.07
2023-02-14T20:18:57.021Z,2.11
2023-02-14T20:21:25.339Z,2.05
2023-02-14T20:23:52.496Z,2.09
2023-02-14T20:26:19.602Z,2.18
2023-02-14T20:28:47.283Z,2.31
2023-02-14T20:31:15.879Z,2.30
2023-02-14T20:33:42.587Z,2.33
2023-02-14T20:36:09.213Z,2.36
2023-02-14T20:38:35.808Z,2.36
2023-02-14T20:41:07.185Z,2.21
2023-02-14T20:43:34.418Z,2.10
2023-02-14T20:46:01.998Z,2.07
2023-02-14T20:48:29.853Z,2.01
2023-02-14T20:50:57.172Z,1.99
2023-02-14T20:53:24.679Z,2.04
2023-02-14T20:55:52.653Z,1.84
2023-02-14T20:58:20.208Z,1.87
2023-02-14T21:00:46.792Z,1.78
2023-02-14T21:03:13.375Z,1.69
2023-02-14T21:05:40.052Z,1.44
2023-02-14T21:08:06.674Z,1.34
2023-02-14T21:10:33.294Z,1.37
2023-02-14T21:12:59.928Z,1.43
2023-02-14T21:15:26.584Z,1.42
2023-02-14T21:17:53.208Z,1.51
2023-02-14T21:20:19.799Z,1.53
2023-02-14T21:22:46.398Z,1.60
2023-02-14T21:25:13.025Z,1.53
2023-02-14T21:27:39.676Z,1.46
2023-02-14T21:30:07.110Z,1.57
2023-02-14T21:32:33.758Z,1.59
2023-02-14T21:35:00.386Z,1.75
2023-02-14T21:37:27.062Z,1.73
2023-02-14T21:39:53.605Z,1.75
2023-02-14T21:42:20.195Z,1.64
2023-02-14T21:44:46.965Z,1.55
2023-02-14T21:47:13.585Z,1.54
2023-02-14T21:49:40.163Z,1.45
2023-02-14T21:52:06.704Z,1.38
2023-02-14T21:54:33.212Z,1.21
2023-02-14T21:56:59.850Z,1.18
2023-02-14T21:59:26.395Z,1.25
2023-02-14T22:01:53.129Z,1.23
2023-02-14T22:04:19.858Z,1.34
2023-02-14T22:06:46.453Z,1.65
2023-02-14T22:09:14.205Z,1.96
2023-02-14T22:11:40.929Z,2.09
2023-02-14T22:14:07.556Z,2.23
2023-02-14T22:16:34.235Z,2.34
2023-02-14T22:19:00.949Z,2.52
2023-02-14T22:21:27.975Z,2.58
2023-02-14T22:23:55.364Z,2.62
2023-02-14T22:26:31.448Z,2.60
2023-02-14T22:29:00.097Z,2.63
2023-02-14T22:31:32.535Z,2.63
2023-02-14T22:33:59.256Z,2.71
2023-02-14T22:36:26.001Z,2.67
2023-02-14T22:38:52.606Z,2.61
2023-02-14T22:41:22.461Z,2.54
2023-02-14T22:43:49.051Z,2.47
2023-02-14T22:46:17.976Z,2.52
2023-02-14T22:48:44.944Z,2.55
2023-02-14T22:51:30.295Z,2.57
2023-02-14T22:54:09.404Z,2.58
2023-02-14T22:56:38.411Z,2.50
2023-02-14T22:59:17.422Z,2.50
2023-02-14T23:01:44.394Z,2.53
2023-02-14T23:04:11.510Z,2.58
2023-02-14T23:06:38.390Z,2.64
2023-02-14T23:09:07.816Z,2.66
2023-02-14T23:11:36.946Z,2.73
2023-02-14T23:14:04.520Z,2.66
2023-02-14T23:16:31.802Z,2.70
2023-02-14T23:18:58.654Z,2.76
2023-02-14T23:21:25.228Z,2.75
2023-02-14T23:23:51.895Z,2.69
2023-02-14T23:26:21.697Z,2.70
2023-02-14T23:28:48.326Z,2.67
2023-02-14T23:31:14.912Z,2.51
2023-02-14T23:33:41.518Z,2.59
2023-02-14T23:36:08.379Z,2.48
2023-02-14T23:38:34.974Z,2.52
2023-02-14T23:41:09.436Z,2.51
2023-02-14T23:43:35.959Z,2.52
2023-02-14T23:46:02.903Z,2.58
2023-02-14T23:48:29.865Z,2.54
2023-02-14T23:50:59.606Z,2.55
2023-02-14T23:53:26.162Z,2.48
2023-02-14T23:55:52.751Z,2.46
2023-02-14T23:58:19.353Z,2.51
